Time;durP1;ratioP1;P1;durP2;ratioP2;P2;SDS_P1;SDS_P2;PMS_P1;PMS_P2;Temp;Humidity;BMP_temperature;BMP_pressure;BME280_temperature;BME280_humidity;BME280_pressure;Samples;Min_cycle;Max_cycle;Signal;HPM_P1;HPM_P2
2023/09/15 00:00:17;;;;;;;18.20;14.13;;;;;;;;;;5007013;28;20653;-66
2023/09/15 00:02:43;;;;;;;19.63;14.88;;;;;;;;;;4998139;28;20223;-66
2023/09/15 00:05:10;;;;;;;18.20;13.57;;;;;;;;;;5007706;28;20197;-66
2023/09/15 00:07:36;;;;;;;19.60;13.15;;;;;;;;;;5008203;28;20214;-66
2023/09/15 00:10:01;;;;;;;17.83;14.25;;;;;;;;;;5010561;28;20610;-66
2023/09/15 00:12:26;;;;;;;18.83;14.35;;;;;;;;;;5005858;28;20604;-66
2023/09/15 00:14:51;;;;;;;19.83;14.60;;;;;;;;;;4999072;28;20643;-66
2023/09/15 00:17:17;;;;;;;19.05;14.35;;;;;;;;;;4992763;28;20363;-65
2023/09/15 00:19:42;;;;;;;20.80;14.27;;;;;;;;;;5003878;28;20175;-66
2023/09/15 00:22:08;;;;;;;18.25;13.90;;;;;;;;;;4998808;28;20199;-66
2023/09/15 00:24:35;;;;;;;19.30;15.77;;;;;;;;;;5006233;28;20179;-66
2023/09/15 00:27:00;;;;;;;23.23;14.98;;;;;;;;;;5003925;28;20257;-66
2023/09/15 00:29:25;;;;;;;18.42;14.35;;;;;;;;;;5007501;28;20179;-65
2023/09/15 00:31:51;;;;;;;20.00;15.45;;;;;;;;;;5005716;28;20213;-66
2023/09/15 00:34:16;;;;;;;22.10;16.45;;;;;;;;;;5009346;28;20175;-67
2023/09/15 00:36:42;;;;;;;17.45;13.80;;;;;;;;;;5000924;28;20272;-66
2023/09/15 00:39:07;;;;;;;17.42;14.70;;;;;;;;;;5002955;28;20171;-66
2023/09/15 00:41:33;;;;;;;19.42;15.30;;;;;;;;;;5001808;28;20183;-66
2023/09/15 00:43:58;;;;;;;21.85;15.40;;;;;;;;;;5004654;28;20224;-66
2023/09/15 00:46:23;;;;;;;19.95;15.05;;;;;;;;;;5007142;28;20182;-66
2023/09/15 00:48:51;;;;;;;20.98;15.57;;;;;;;;;;5010197;28;20523;-66
2023/09/15 00:51:16;;;;;;;22.35;14.85;;;;;;;;;;5005795;28;20175;-66
2023/09/15 00:53:42;;;;;;;18.75;15.07;;;;;;;;;;4993957;28;20249;-66
2023/09/15 00:56:08;;;;;;;19.13;16.08;;;;;;;;;;5003381;28;20690;-66
2023/09/15 00:58:36;;;;;;;20.95;15.65;;;;;;;;;;5008686;28;20175;-65
2023/09/15 01:01:01;;;;;;;19.48;13.90;;;;;;;;;;5000989;28;20263;-67
2023/09/15 01:03:28;;;;;;;29.17;18.70;;;;;;;;;;4997491;28;20298;-67
2023/09/15 01:05:53;;;;;;;19.20;14.95;;;;;;;;;;5009903;28;20191;-66
2023/09/15 01:08:18;;;;;;;19.33;14.80;;;;;;;;;;5009427;28;20249;-66
2023/09/15 01:10:44;;;;;;;18.13;14.90;;;;;;;;;;5007325;28;20183;-66
2023/09/15 01:13:10;;;;;;;19.25;15.90;;;;;;;;;;4995524;28;20203;-65
2023/09/15 01:15:50;;;;;;;20.63;15.63;;;;;;;;;;5001723;28;20211;-65
2023/09/15 01:18:15;;;;;;;19.38;15.82;;;;;;;;;;5008521;28;20313;-65
2023/09/15 01:20:55;;;;;;;21.75;16.40;;;;;;;;;;5008225;28;20250;-66
2023/09/15 01:23:26;;;;;;;22.45;16.30;;;;;;;;;;5004074;28;20202;-66
2023/09/15 01:26:00;;;;;;;22.05;15.80;;;;;;;;;;5006913;28;20886;-67
2023/09/15 01:28:28;;;;;;;24.45;18.13;;;;;;;;;;5004889;28;20649;-65
2023/09/15 01:30:54;;;;;;;23.30;17.10;;;;;;;;;;5006182;28;20298;-67
2023/09/15 01:33:19;;;;;;;21.35;17.08;;;;;;;;;;5002255;28;20311;-66
2023/09/15 01:35:45;;;;;;;23.27;17.88;;;;;;;;;;5008602;28;20281;-66
2023/09/15 01:38:10;;;;;;;22.98;16.30;;;;;;;;;;5000946;28;20179;-66
2023/09/15 01:40:37;;;;;;;23.90;15.68;;;;;;;;;;5003809;28;20350;-67
2023/09/15 01:43:03;;;;;;;22.52;17.27;;;;;;;;;;5001199;28;20199;-65
2023/09/15 01:45:28;;;;;;;23.25;17.45;;;;;;;;;;5008551;28;20178;-65
2023/09/15 01:47:54;;;;;;;20.88;15.98;;;;;;;;;;5013296;28;20257;-65
2023/09/15 01:50:19;;;;;;;20.20;15.65;;;;;;;;;;5013119;28;20182;-65
2023/09/15 01:52:45;;;;;;;22.15;16.95;;;;;;;;;;5005708;28;20238;-66
2023/09/15 01:55:10;;;;;;;19.50;15.35;;;;;;;;;;5008946;28;20172;-66
2023/09/15 01:57:36;;;;;;;24.80;16.90;;;;;;;;;;5008191;28;20265;-66
2023/09/15 02:00:01;;;;;;;21.98;17.10;;;;;;;;;;5003500;28;20237;-66
2023/09/15 02:02:26;;;;;;;22.23;16.38;;;;;;;;;;5018905;23;20222;-69
2023/09/15 02:04:51;;;;;;;24.17;15.68;;;;;;;;;;5014309;28;20625;-69
2023/09/15 02:07:17;;;;;;;24.67;17.05;;;;;;;;;;5012966;28;20183;-69
2023/09/15 02:09:42;;;;;;;23.85;17.05;;;;;;;;;;5006518;28;20187;-69
2023/09/15 02:12:07;;;;;;;25.02;17.38;;;;;;;;;;5012149;28;20199;-69
2023/09/15 02:14:34;;;;;;;24.35;18.13;;;;;;;;;;5011826;28;20218;-70
2023/09/15 02:17:00;;;;;;;28.88;18.17;;;;;;;;;;5011579;28;20260;-68
2023/09/15 02:19:25;;;;;;;25.80;18.05;;;;;;;;;;5011010;28;20175;-70
2023/09/15 02:21:50;;;;;;;23.60;17.52;;;;;;;;;;5012789;28;20236;-69
2023/09/15 02:24:16;;;;;;;29.30;18.63;;;;;;;;;;5013005;28;20254;-68
2023/09/15 02:26:41;;;;;;;27.58;18.92;;;;;;;;;;5012135;28;20191;-69
2023/09/15 02:29:06;;;;;;;24.13;18.48;;;;;;;;;;5008753;28;20179;-68
2023/09/15 02:31:32;;;;;;;23.30;17.60;;;;;;;;;;5011483;28;20179;-70
2023/09/15 02:33:59;;;;;;;23.67;17.35;;;;;;;;;;5007107;28;20186;-69
2023/09/15 02:36:25;;;;;;;25.52;18.88;;;;;;;;;;5003789;28;20611;-69
2023/09/15 02:38:50;;;;;;;22.23;16.60;;;;;;;;;;5011062;28;20182;-69
2023/09/15 02:41:15;;;;;;;24.95;17.75;;;;;;;;;;5011791;28;20181;-69
2023/09/15 02:43:40;;;;;;;26.85;18.83;;;;;;;;;;5013409;28;20261;-69
2023/09/15 02:46:06;;;;;;;26.70;17.67;;;;;;;;;;5012895;28;20570;-69
2023/09/15 02:48:31;;;;;;;25.70;18.42;;;;;;;;;;5010608;28;20245;-69
2023/09/15 02:50:57;;;;;;;34.47;20.35;;;;;;;;;;5013373;28;20261;-69
2023/09/15 02:53:23;;;;;;;28.13;18.38;;;;;;;;;;5011384;28;20190;-69
2023/09/15 02:55:59;;;;;;;26.85;18.10;;;;;;;;;;5011714;28;20211;-69
2023/09/15 02:58:25;;;;;;;26.83;19.45;;;;;;;;;;5009459;28;20245;-69
2023/09/15 03:00:50;;;;;;;25.00;19.25;;;;;;;;;;5012787;28;20642;-69
2023/09/15 03:03:15;;;;;;;28.88;20.10;;;;;;;;;;5007960;28;20206;-69
2023/09/15 03:05:40;;;;;;;24.40;17.27;;;;;;;;;;5011608;28;20175;-69
2023/09/15 03:08:05;;;;;;;26.30;18.05;;;;;;;;;;5010375;28;20191;-69
2023/09/15 03:10:33;;;;;;;23.30;17.83;;;;;;;;;;5005530;28;20237;-70
2023/09/15 03:12:59;;;;;;;24.40;18.05;;;;;;;;;;5012322;28;20298;-69
2023/09/15 03:15:24;;;;;;;28.50;20.45;;;;;;;;;;5011630;28;20544;-69
2023/09/15 03:17:49;;;;;;;28.17;18.73;;;;;;;;;;5011796;28;20194;-69
2023/09/15 03:20:16;;;;;;;26.30;18.83;;;;;;;;;;5011838;28;20179;-69
2023/09/15 03:22:41;;;;;;;23.35;18.77;;;;;;;;;;5009680;28;20201;-69
2023/09/15 03:25:07;;;;;;;34.92;20.02;;;;;;;;;;5005541;28;20179;-69
2023/09/15 03:27:32;;;;;;;27.85;19.30;;;;;;;;;;5007977;28;20179;-69
2023/09/15 03:29:57;;;;;;;25.90;20.08;;;;;;;;;;5028786;28;20229;-69
2023/09/15 03:32:22;;;;;;;28.63;19.10;;;;;;;;;;5020665;28;20249;-69
2023/09/15 03:34:48;;;;;;;28.95;19.70;;;;;;;;;;5011932;28;20171;-70
2023/09/15 03:37:13;;;;;;;34.70;20.23;;;;;;;;;;5010813;28;20206;-69
2023/09/15 03:39:38;;;;;;;29.33;19.45;;;;;;;;;;5012008;28;20175;-69
2023/09/15 03:42:04;;;;;;;28.08;19.63;;;;;;;;;;5011636;28;20588;-69
2023/09/15 03:44:29;;;;;;;25.52;18.50;;;;;;;;;;5005836;28;20183;-69
2023/09/15 03:46:54;;;;;;;29.67;19.80;;;;;;;;;;5010517;28;20205;-69
2023/09/15 03:49:20;;;;;;;26.30;18.27;;;;;;;;;;5011787;28;20203;-69
2023/09/15 03:51:45;;;;;;;24.30;18.65;;;;;;;;;;5011277;28;20642;-70
2023/09/15 03:54:10;;;;;;;23.92;18.17;;;;;;;;;;5010109;28;20171;-69
2023/09/15 03:56:35;;;;;;;27.02;18.08;;;;;;;;;;5012626;28;20175;-69
2023/09/15 03:59:01;;;;;;;24.15;18.77;;;;;;;;;;5008221;28;20175;-69
2023/09/15 04:01:26;;;;;;;26.33;18.48;;;;;;;;;;5011126;28;20642;-69
2023/09/15 04:03:52;;;;;;;28.50;19.73;;;;;;;;;;5010020;28;20218;-69
2023/09/15 04:06:17;;;;;;;27.77;19.85;;;;;;;;;;5009944;28;20252;-69
2023/09/15 04:08:42;;;;;;;28.25;18.42;;;;;;;;;;5010833;28;20175;-69
2023/09/15 04:11:08;;;;;;;27.05;18.23;;;;;;;;;;5003070;28;20186;-69
2023/09/15 04:13:33;;;;;;;26.52;18.55;;;;;;;;;;5026268;28;20642;-69
2023/09/15 04:16:00;;;;;;;24.27;17.00;;;;;;;;;;5010900;28;20182;-69
2023/09/15 04:18:25;;;;;;;29.58;19.38;;;;;;;;;;5011831;28;20213;-69
2023/09/15 04:20:50;;;;;;;26.33;18.88;;;;;;;;;;5011217;28;20203;-69
2023/09/15 04:23:16;;;;;;;27.37;19.17;;;;;;;;;;5011043;28;20228;-69
2023/09/15 04:25:41;;;;;;;26.35;19.25;;;;;;;;;;5012608;28;20627;-69
2023/09/15 04:28:07;;;;;;;30.30;19.00;;;;;;;;;;5008113;28;20179;-69
2023/09/15 04:30:32;;;;;;;26.25;17.27;;;;;;;;;;5010954;28;20190;-69
2023/09/15 04:32:59;;;;;;;32.05;19.25;;;;;;;;;;5010294;28;20195;-69
2023/09/15 04:35:25;;;;;;;28.15;18.17;;;;;;;;;;5010874;28;20175;-69
2023/09/15 04:37:50;;;;;;;26.67;18.05;;;;;;;;;;5011594;28;20687;-69
2023/09/15 04:40:15;;;;;;;25.65;17.35;;;;;;;;;;5013409;28;20178;-69
2023/09/15 04:42:40;;;;;;;27.45;16.90;;;;;;;;;;5012498;28;20190;-69
2023/09/15 04:45:06;;;;;;;25.55;18.27;;;;;;;;;;5016473;28;20268;-69
2023/09/15 04:47:35;;;;;;;31.30;18.05;;;;;;;;;;5010234;28;20674;-69
2023/09/15 04:50:01;;;;;;;30.73;19.45;;;;;;;;;;5007936;28;20179;-69
2023/09/15 04:52:26;;;;;;;24.98;16.98;;;;;;;;;;5013843;28;20245;-68
2023/09/15 04:54:52;;;;;;;28.58;17.27;;;;;;;;;;5013384;28;20178;-69
2023/09/15 04:57:18;;;;;;;27.45;17.67;;;;;;;;;;5017959;28;20269;-69
2023/09/15 04:59:46;;;;;;;27.98;19.13;;;;;;;;;;5015353;28;20556;-69
2023/09/15 05:02:11;;;;;;;31.50;20.48;;;;;;;;;;5014352;28;20210;-69
2023/09/15 05:04:36;;;;;;;31.63;19.30;;;;;;;;;;5013177;28;20236;-69
2023/09/15 05:07:02;;;;;;;31.20;19.80;;;;;;;;;;5014617;28;20684;-69
2023/09/15 05:09:27;;;;;;;33.78;20.40;;;;;;;;;;5013163;28;20701;-69
2023/09/15 05:11:53;;;;;;;28.38;18.05;;;;;;;;;;5014493;28;20195;-69
2023/09/15 05:14:18;;;;;;;25.70;17.50;;;;;;;;;;5012973;28;20278;-69
2023/09/15 05:16:44;;;;;;;30.55;17.98;;;;;;;;;;5013436;28;20274;-69
2023/09/15 05:19:09;;;;;;;30.15;18.25;;;;;;;;;;5011028;28;20735;-69
2023/09/15 05:21:35;;;;;;;22.38;15.45;;;;;;;;;;5013183;28;20179;-69
2023/09/15 05:24:00;;;;;;;26.60;17.38;;;;;;;;;;5011311;28;20186;-69
2023/09/15 05:26:25;;;;;;;30.25;17.88;;;;;;;;;;5013901;28;20203;-69
2023/09/15 05:28:51;;;;;;;22.88;15.52;;;;;;;;;;5012171;28;20175;-69
2023/09/15 05:31:17;;;;;;;22.33;15.85;;;;;;;;;;5012903;28;20179;-68
2023/09/15 05:33:42;;;;;;;23.80;15.77;;;;;;;;;;5012870;28;20223;-69
2023/09/15 05:36:08;;;;;;;27.13;17.33;;;;;;;;;;5018500;28;20187;-70
2023/09/15 05:38:33;;;;;;;26.33;15.88;;;;;;;;;;5013434;28;20236;-69
2023/09/15 05:40:58;;;;;;;26.60;17.35;;;;;;;;;;5011317;28;20183;-69
2023/09/15 05:43:23;;;;;;;25.55;17.30;;;;;;;;;;5012011;28;20206;-70
2023/09/15 05:45:49;;;;;;;24.97;16.23;;;;;;;;;;5013286;28;20203;-70
2023/09/15 05:48:17;;;;;;;20.67;14.80;;;;;;;;;;5011923;28;20505;-70
2023/09/15 05:50:43;;;;;;;29.05;16.63;;;;;;;;;;5003500;28;20179;-70
2023/09/15 05:53:08;;;;;;;24.67;16.38;;;;;;;;;;5008733;28;20565;-70
2023/09/15 05:55:34;;;;;;;26.05;16.73;;;;;;;;;;5009971;28;20175;-70
2023/09/15 05:57:59;;;;;;;22.60;16.13;;;;;;;;;;5011805;28;20180;-69
2023/09/15 06:00:25;;;;;;;25.40;15.70;;;;;;;;;;5008254;28;20203;-69
2023/09/15 06:02:50;;;;;;;27.55;16.33;;;;;;;;;;5009536;28;20207;-69
2023/09/15 06:05:17;;;;;;;23.83;15.55;;;;;;;;;;5011494;28;20233;-69
2023/09/15 06:07:42;;;;;;;23.52;14.68;;;;;;;;;;4997513;28;20231;-69
2023/09/15 06:10:08;;;;;;;25.38;15.48;;;;;;;;;;5011101;28;20677;-69
2023/09/15 06:12:33;;;;;;;25.30;15.85;;;;;;;;;;5011173;28;20198;-69
2023/09/15 06:14:58;;;;;;;24.13;15.15;;;;;;;;;;5013445;28;20658;-69
2023/09/15 06:17:24;;;;;;;21.20;14.63;;;;;;;;;;5016655;28;20273;-69
2023/09/15 06:19:49;;;;;;;21.35;14.27;;;;;;;;;;5012698;28;20546;-69
2023/09/15 06:22:14;;;;;;;21.52;14.57;;;;;;;;;;5010386;28;20217;-70
2023/09/15 06:24:39;;;;;;;28.45;15.52;;;;;;;;;;5026702;28;20187;-69
2023/09/15 06:27:04;;;;;;;18.67;14.15;;;;;;;;;;5010104;28;20238;-70
2023/09/15 06:29:30;;;;;;;22.60;13.30;;;;;;;;;;5028691;28;20179;-69
2023/09/15 06:31:55;;;;;;;19.17;13.02;;;;;;;;;;5012411;28;20210;-69
2023/09/15 06:34:20;;;;;;;16.48;12.57;;;;;;;;;;5012358;28;20186;-70
2023/09/15 06:36:45;;;;;;;22.20;13.50;;;;;;;;;;5010118;28;20194;-69
2023/09/15 06:39:11;;;;;;;16.73;11.60;;;;;;;;;;5012314;28;20182;-69
2023/09/15 06:41:36;;;;;;;17.10;12.50;;;;;;;;;;5013972;28;20227;-69
2023/09/15 06:44:01;;;;;;;20.05;12.65;;;;;;;;;;5007440;28;20179;-69
2023/09/15 06:46:27;;;;;;;14.82;11.43;;;;;;;;;;5010995;28;20554;-70
2023/09/15 06:48:52;;;;;;;17.70;11.50;;;;;;;;;;5013006;28;20209;-69
2023/09/15 06:51:17;;;;;;;14.88;11.05;;;;;;;;;;5009286;28;20172;-70
2023/09/15 06:53:42;;;;;;;14.30;10.25;;;;;;;;;;5010800;28;20199;-69
2023/09/15 06:56:08;;;;;;;15.05;10.30;;;;;;;;;;5012493;28;20183;-69
2023/09/15 06:58:33;;;;;;;14.07;9.88;;;;;;;;;;5010688;28;20646;-68
2023/09/15 07:00:58;;;;;;;12.40;8.95;;;;;;;;;;5010965;28;20186;-70
2023/09/15 07:03:26;;;;;;;16.42;9.10;;;;;;;;;;5011972;28;20305;-69
2023/09/15 07:05:52;;;;;;;12.15;9.25;;;;;;;;;;5012887;28;20194;-69
2023/09/15 07:08:17;;;;;;;11.52;8.23;;;;;;;;;;5011818;28;20230;-69
2023/09/15 07:10:42;;;;;;;14.80;9.52;;;;;;;;;;5011837;28;20229;-70
2023/09/15 07:13:07;;;;;;;10.40;8.07;;;;;;;;;;5011941;28;20217;-69
2023/09/15 07:15:35;;;;;;;16.98;8.68;;;;;;;;;;5006191;28;20263;-69
2023/09/15 07:18:01;;;;;;;11.18;7.15;;;;;;;;;;5006990;28;20190;-69
2023/09/15 07:20:26;;;;;;;13.00;7.63;;;;;;;;;;5003138;28;20600;-69
2023/09/15 07:22:52;;;;;;;9.98;7.63;;;;;;;;;;5011324;28;20187;-69
2023/09/15 07:25:17;;;;;;;11.35;7.18;;;;;;;;;;5009957;28;20179;-68
2023/09/15 07:27:42;;;;;;;11.40;7.95;;;;;;;;;;5010040;28;20249;-69
2023/09/15 07:30:10;;;;;;;12.18;8.27;;;;;;;;;;5013343;28;20237;-69
2023/09/15 07:32:35;;;;;;;11.07;7.53;;;;;;;;;;5012614;28;20199;-69
2023/09/15 07:35:00;;;;;;;12.05;8.32;;;;;;;;;;5008434;28;20181;-69
2023/09/15 07:37:26;;;;;;;9.98;7.25;;;;;;;;;;5010784;28;20626;-69
2023/09/15 07:39:51;;;;;;;15.25;7.78;;;;;;;;;;5012794;28;20294;-69
2023/09/15 07:42:17;;;;;;;10.25;7.13;;;;;;;;;;5010655;28;20576;-68
2023/09/15 07:44:42;;;;;;;9.10;6.78;;;;;;;;;;5010734;28;20653;-69
2023/09/15 07:47:09;;;;;;;9.90;7.72;;;;;;;;;;5012200;28;20693;-69
2023/09/15 07:49:35;;;;;;;10.60;7.35;;;;;;;;;;5011684;28;20182;-69
2023/09/15 07:52:00;;;;;;;11.63;6.60;;;;;;;;;;5010833;28;20191;-68
2023/09/15 07:54:25;;;;;;;11.70;6.82;;;;;;;;;;5012075;28;20670;-70
2023/09/15 07:56:51;;;;;;;7.97;6.80;;;;;;;;;;5009016;28;20186;-71
2023/09/15 07:59:16;;;;;;;13.77;7.53;;;;;;;;;;5011637;28;20186;-69
2023/09/15 08:01:41;;;;;;;8.50;5.85;;;;;;;;;;5007825;28;20211;-70
2023/09/15 08:04:06;;;;;;;10.65;6.30;;;;;;;;;;5009885;28;20191;-69
2023/09/15 08:06:31;;;;;;;7.45;5.53;;;;;;;;;;5009815;28;20265;-69
2023/09/15 08:08:57;;;;;;;9.52;6.07;;;;;;;;;;5011311;28;20220;-69
2023/09/15 08:11:22;;;;;;;10.60;5.63;;;;;;;;;;5011105;28;20261;-68
2023/09/15 08:13:47;;;;;;;9.93;5.60;;;;;;;;;;5008445;28;20697;-69
2023/09/15 08:16:12;;;;;;;8.38;5.70;;;;;;;;;;5009492;28;20190;-69
2023/09/15 08:18:38;;;;;;;10.20;6.57;;;;;;;;;;5012395;28;20171;-71
2023/09/15 08:21:03;;;;;;;7.68;6.13;;;;;;;;;;5009620;28;20187;-69
2023/09/15 08:23:29;;;;;;;8.15;4.80;;;;;;;;;;5008093;28;20206;-70
2023/09/15 08:25:54;;;;;;;8.15;5.43;;;;;;;;;;5010850;28;20210;-70
2023/09/15 08:28:19;;;;;;;12.35;5.70;;;;;;;;;;5011422;28;20195;-70
2023/09/15 08:30:46;;;;;;;7.47;5.53;;;;;;;;;;5012719;28;20182;-70
2023/09/15 08:33:11;;;;;;;7.63;4.82;;;;;;;;;;5008470;28;20211;-70
2023/09/15 08:35:37;;;;;;;13.40;5.28;;;;;;;;;;5012397;28;20334;-70
2023/09/15 08:38:02;;;;;;;6.30;4.78;;;;;;;;;;5011924;28;20171;-70
2023/09/15 08:40:38;;;;;;;8.70;4.93;;;;;;;;;;5012141;28;20592;-69
2023/09/15 08:43:04;;;;;;;5.88;4.63;;;;;;;;;;5011721;28;20190;-70
2023/09/15 08:45:30;;;;;;;5.75;4.43;;;;;;;;;;5011236;28;20179;-69
2023/09/15 08:47:57;;;;;;;5.50;4.57;;;;;;;;;;5011300;28;20257;-70
2023/09/15 08:50:22;;;;;;;6.60;4.00;;;;;;;;;;5010894;28;20661;-70
2023/09/15 08:52:49;;;;;;;8.60;4.72;;;;;;;;;;5008706;28;20191;-70
2023/09/15 08:55:15;;;;;;;9.45;4.78;;;;;;;;;;5012135;28;20174;-70
2023/09/15 08:57:40;;;;;;;10.32;4.90;;;;;;;;;;5010259;28;20654;-70
2023/09/15 09:00:08;;;;;;;5.57;4.90;;;;;;;;;;5011573;28;20669;-70
2023/09/15 09:02:34;;;;;;;5.80;3.88;;;;;;;;;;5007492;28;20268;-69
2023/09/15 09:04:59;;;;;;;5.80;3.90;;;;;;;;;;5010770;28;20179;-70
2023/09/15 09:07:24;;;;;;;7.68;4.20;;;;;;;;;;5010755;28;20219;-70
2023/09/15 09:09:51;;;;;;;5.82;3.47;;;;;;;;;;5008524;28;20211;-70
2023/09/15 09:12:16;;;;;;;5.90;4.10;;;;;;;;;;5009070;28;20203;-69
2023/09/15 09:14:41;;;;;;;3.92;3.28;;;;;;;;;;5011136;28;20190;-70
2023/09/15 09:17:08;;;;;;;4.38;3.13;;;;;;;;;;5011401;28;20171;-70
2023/09/15 09:19:42;;;;;;;6.38;3.85;;;;;;;;;;5009302;28;20178;-70
2023/09/15 09:22:07;;;;;;;6.07;4.22;;;;;;;;;;5007413;28;20245;-70
2023/09/15 09:24:36;;;;;;;7.88;3.95;;;;;;;;;;5007805;28;20179;-70
2023/09/15 09:27:07;;;;;;;7.20;3.88;;;;;;;;;;5012296;28;20223;-70
2023/09/15 09:29:32;;;;;;;12.05;3.97;;;;;;;;;;5013711;28;20176;-70
2023/09/15 09:31:57;;;;;;;5.43;3.60;;;;;;;;;;5014376;28;20241;-70
2023/09/15 09:34:23;;;;;;;9.75;4.03;;;;;;;;;;5014940;28;20553;-70
2023/09/15 09:36:49;;;;;;;6.90;3.83;;;;;;;;;;5014825;28;20229;-71
2023/09/15 09:39:14;;;;;;;7.05;4.32;;;;;;;;;;5013058;28;20677;-71
2023/09/15 09:41:41;;;;;;;6.97;3.88;;;;;;;;;;5014775;28;20679;-70
2023/09/15 09:44:07;;;;;;;7.78;3.83;;;;;;;;;;5014244;28;20221;-71
2023/09/15 09:46:33;;;;;;;6.45;4.60;;;;;;;;;;5014427;28;20205;-71
2023/09/15 09:48:58;;;;;;;7.80;4.32;;;;;;;;;;5013741;28;20167;-71
2023/09/15 09:51:23;;;;;;;8.07;4.15;;;;;;;;;;5014475;28;20177;-71
2023/09/15 09:53:52;;;;;;;5.00;4.13;;;;;;;;;;5014540;28;20277;-70
2023/09/15 09:56:18;;;;;;;3.53;3.03;;;;;;;;;;5014459;28;20185;-71
2023/09/15 09:58:44;;;;;;;5.75;4.05;;;;;;;;;;5013004;28;20179;-70
2023/09/15 10:01:11;;;;;;;7.72;3.95;;;;;;;;;;5011748;28;20730;-71
2023/09/15 10:03:36;;;;;;;6.55;4.35;;;;;;;;;;5014139;28;20660;-71
2023/09/15 10:06:04;;;;;;;5.05;3.88;;;;;;;;;;5014112;28;20281;-70
2023/09/15 10:08:29;;;;;;;5.28;3.40;;;;;;;;;;5013247;28;20190;-70
2023/09/15 10:10:55;;;;;;;5.28;3.53;;;;;;;;;;5014253;28;20168;-70
2023/09/15 10:13:22;;;;;;;8.20;4.10;;;;;;;;;;5014269;28;20199;-70
2023/09/15 10:15:48;;;;;;;5.68;4.00;;;;;;;;;;5012202;28;20274;-68
2023/09/15 10:18:15;;;;;;;6.82;4.03;;;;;;;;;;5011130;28;20175;-70
2023/09/15 10:20:41;;;;;;;4.38;3.80;;;;;;;;;;5008825;28;20242;-70
2023/09/15 10:23:07;;;;;;;6.50;4.68;;;;;;;;;;5008701;28;20570;-70
2023/09/15 10:25:43;;;;;;;4.00;3.50;;;;;;;;;;5012578;28;20209;-70
2023/09/15 10:28:09;;;;;;;5.60;3.70;;;;;;;;;;5012327;28;20186;-70
2023/09/15 10:30:36;;;;;;;7.57;4.60;;;;;;;;;;5006289;28;20496;-70
2023/09/15 10:33:01;;;;;;;6.22;4.80;;;;;;;;;;5011388;28;20192;-70
2023/09/15 10:35:26;;;;;;;7.35;4.97;;;;;;;;;;5012846;28;20175;-69
2023/09/15 10:37:55;;;;;;;6.03;5.28;;;;;;;;;;5010588;28;20269;-69
2023/09/15 10:40:20;;;;;;;8.07;5.25;;;;;;;;;;5006916;28;20754;-70
2023/09/15 10:42:49;;;;;;;6.93;5.22;;;;;;;;;;5011604;28;20298;-69
2023/09/15 10:45:14;;;;;;;11.02;5.20;;;;;;;;;;5003338;28;20558;-71
2023/09/15 10:47:40;;;;;;;6.35;5.32;;;;;;;;;;5009155;28;20297;-70
2023/09/15 10:50:07;;;;;;;8.57;5.72;;;;;;;;;;5011318;28;20191;-71
2023/09/15 10:52:36;;;;;;;7.68;4.85;;;;;;;;;;5012241;28;20682;-70
2023/09/15 10:55:02;;;;;;;6.95;5.78;;;;;;;;;;5018142;28;20237;-70
2023/09/15 10:57:28;;;;;;;6.53;4.93;;;;;;;;;;5019546;28;20183;-70
2023/09/15 10:59:56;;;;;;;9.00;5.88;;;;;;;;;;5020246;28;20646;-71
2023/09/15 11:02:21;;;;;;;6.72;5.70;;;;;;;;;;5019787;28;20203;-70
2023/09/15 11:04:48;;;;;;;6.72;5.43;;;;;;;;;;5021074;28;20225;-71
2023/09/15 11:07:16;;;;;;;5.38;4.78;;;;;;;;;;5019617;28;20792;-70
2023/09/15 11:09:44;;;;;;;9.15;5.78;;;;;;;;;;5019968;28;20179;-70
2023/09/15 11:12:12;;;;;;;6.70;5.57;;;;;;;;;;5013266;28;20195;-71
2023/09/15 11:14:37;;;;;;;8.25;6.13;;;;;;;;;;5011529;28;20243;-70
2023/09/15 11:17:03;;;;;;;8.80;5.40;;;;;;;;;;5018607;28;20202;-70
2023/09/15 11:19:30;;;;;;;9.13;5.47;;;;;;;;;;5018769;28;20222;-70
2023/09/15 11:21:55;;;;;;;10.23;5.53;;;;;;;;;;5017596;28;20253;-70
2023/09/15 11:24:21;;;;;;;9.10;6.35;;;;;;;;;;5017874;28;20190;-70
2023/09/15 11:26:47;;;;;;;8.27;6.68;;;;;;;;;;5009605;28;20242;-70
2023/09/15 11:29:16;;;;;;;8.77;5.05;;;;;;;;;;5016246;28;20201;-70
2023/09/15 11:31:43;;;;;;;5.38;4.35;;;;;;;;;;5016228;28;21478;-71
2023/09/15 11:34:08;;;;;;;7.72;5.43;;;;;;;;;;5013278;28;20669;-70
2023/09/15 11:36:35;;;;;;;6.90;4.90;;;;;;;;;;5011820;28;20179;-70
2023/09/15 11:39:06;;;;;;;8.93;5.65;;;;;;;;;;5012799;28;20246;-71
2023/09/15 11:41:32;;;;;;;8.48;5.05;;;;;;;;;;5013243;28;20489;-69
2023/09/15 11:43:57;;;;;;;8.40;5.63;;;;;;;;;;5004483;28;20183;-69
2023/09/15 11:46:23;;;;;;;7.63;5.00;;;;;;;;;;5011495;28;20735;-69
2023/09/15 11:48:48;;;;;;;5.03;3.50;;;;;;;;;;5008707;28;20273;-70
2023/09/15 11:51:14;;;;;;;7.30;4.70;;;;;;;;;;5011956;28;20171;-70
2023/09/15 11:53:41;;;;;;;9.65;5.30;;;;;;;;;;5011105;28;20191;-70
2023/09/15 11:56:06;;;;;;;7.05;5.65;;;;;;;;;;5010992;28;20186;-70
2023/09/15 11:58:32;;;;;;;5.65;3.83;;;;;;;;;;5011347;28;20198;-69
2023/09/15 12:00:57;;;;;;;9.50;3.90;;;;;;;;;;5005475;28;20190;-71
2023/09/15 12:03:24;;;;;;;3.63;3.30;;;;;;;;;;5010769;28;20230;-71
2023/09/15 12:05:50;;;;;;;3.88;2.58;;;;;;;;;;5007735;28;20213;-70
2023/09/15 12:08:15;;;;;;;3.50;2.75;;;;;;;;;;5011882;28;20389;-71
2023/09/15 12:10:42;;;;;;;4.40;3.00;;;;;;;;;;5003483;28;20554;-69
2023/09/15 12:13:07;;;;;;;5.47;2.90;;;;;;;;;;5010276;28;20747;-69
2023/09/15 12:15:33;;;;;;;5.28;2.80;;;;;;;;;;5001941;28;20184;-70
2023/09/15 12:17:58;;;;;;;6.38;3.10;;;;;;;;;;5010518;28;20186;-70
2023/09/15 12:20:23;;;;;;;3.30;2.63;;;;;;;;;;5011530;28;20187;-70
2023/09/15 12:22:49;;;;;;;4.55;2.47;;;;;;;;;;5013196;28;20194;-70
2023/09/15 12:25:15;;;;;;;6.07;2.97;;;;;;;;;;5012309;28;20562;-70
2023/09/15 12:27:40;;;;;;;5.45;3.15;;;;;;;;;;5009610;28;20207;-70
2023/09/15 12:30:06;;;;;;;4.82;2.65;;;;;;;;;;5012668;28;20290;-70
2023/09/15 12:32:32;;;;;;;5.22;2.90;;;;;;;;;;5012078;28;20206;-70
2023/09/15 12:34:57;;;;;;;4.32;2.85;;;;;;;;;;5007027;28;20178;-70
2023/09/15 12:37:26;;;;;;;7.70;3.75;;;;;;;;;;5007059;28;20179;-70
2023/09/15 12:39:52;;;;;;;6.20;4.10;;;;;;;;;;5010130;28;20179;-70
2023/09/15 12:42:17;;;;;;;5.25;3.28;;;;;;;;;;5011449;28;20201;-70
2023/09/15 12:44:42;;;;;;;5.72;3.85;;;;;;;;;;5011579;28;20269;-70
2023/09/15 12:47:08;;;;;;;3.72;2.83;;;;;;;;;;5011063;28;20249;-70
2023/09/15 12:49:33;;;;;;;5.20;3.20;;;;;;;;;;5011034;28;20175;-71
2023/09/15 12:51:58;;;;;;;6.10;3.22;;;;;;;;;;5010266;28;20191;-71
2023/09/15 12:54:23;;;;;;;6.05;3.60;;;;;;;;;;5010948;28;20635;-69
2023/09/15 12:56:53;;;;;;;5.32;3.53;;;;;;;;;;5010810;28;20186;-71
2023/09/15 12:59:21;;;;;;;7.38;3.30;;;;;;;;;;5009298;28;20279;-70
2023/09/15 13:01:46;;;;;;;6.68;4.03;;;;;;;;;;5013115;28;20183;-71
2023/09/15 13:04:12;;;;;;;6.15;3.85;;;;;;;;;;5015887;28;20202;-71
2023/09/15 13:06:37;;;;;;;6.50;3.58;;;;;;;;;;5016183;28;20204;-70
2023/09/15 13:09:04;;;;;;;5.40;4.10;;;;;;;;;;5014247;28;20262;-70
2023/09/15 13:11:30;;;;;;;5.13;3.88;;;;;;;;;;5015955;28;20179;-70
2023/09/15 13:13:55;;;;;;;6.65;3.92;;;;;;;;;;5015640;28;20741;-71
2023/09/15 13:16:20;;;;;;;8.27;4.10;;;;;;;;;;5014790;28;20614;-70
2023/09/15 13:18:45;;;;;;;6.68;4.15;;;;;;;;;;5012528;28;20506;-71
2023/09/15 13:21:12;;;;;;;8.33;5.03;;;;;;;;;;5014902;28;20179;-71
2023/09/15 13:23:38;;;;;;;7.95;4.03;;;;;;;;;;5012607;28;20844;-70
2023/09/15 13:26:05;;;;;;;8.52;3.60;;;;;;;;;;5015190;28;20187;-71
2023/09/15 13:28:30;;;;;;;5.97;3.05;;;;;;;;;;5014953;28;20481;-70
2023/09/15 13:30:55;;;;;;;5.20;3.23;;;;;;;;;;5014685;28;20171;-71
2023/09/15 13:33:20;;;;;;;5.18;3.60;;;;;;;;;;5015018;28;20511;-69
2023/09/15 13:35:45;;;;;;;4.85;3.55;;;;;;;;;;5015137;28;20199;-70
2023/09/15 13:38:11;;;;;;;6.07;3.20;;;;;;;;;;5007089;28;20708;-70
2023/09/15 13:40:36;;;;;;;4.28;3.10;;;;;;;;;;5011921;28;20412;-70
2023/09/15 13:43:01;;;;;;;4.87;4.00;;;;;;;;;;5012422;28;20220;-70
2023/09/15 13:45:27;;;;;;;5.32;3.53;;;;;;;;;;5012578;28;20425;-70
2023/09/15 13:47:52;;;;;;;5.65;4.18;;;;;;;;;;5014429;28;20674;-70
2023/09/15 13:50:17;;;;;;;4.23;3.57;;;;;;;;;;5013661;28;20182;-70
2023/09/15 13:52:43;;;;;;;4.60;3.88;;;;;;;;;;5014311;28;20431;-70
2023/09/15 13:55:08;;;;;;;11.02;5.13;;;;;;;;;;5014821;28;20254;-70
2023/09/15 13:57:35;;;;;;;5.22;4.22;;;;;;;;;;5014732;28;20269;-70
2023/09/15 14:00:01;;;;;;;8.13;4.72;;;;;;;;;;5014548;28;20240;-70
2023/09/15 14:04:54;;;;;;;6.13;4.63;;;;;;;;;;4991878;28;20847;-69
2023/09/15 14:07:19;;;;;;;4.40;3.92;;;;;;;;;;4997156;28;20203;-69
2023/09/15 14:09:44;;;;;;;5.55;4.00;;;;;;;;;;5000395;28;20207;-68
2023/09/15 14:12:11;;;;;;;6.37;4.07;;;;;;;;;;5001056;28;20274;-69
2023/09/15 14:14:36;;;;;;;7.45;4.05;;;;;;;;;;4999429;28;20541;-69
2023/09/15 14:17:01;;;;;;;5.63;4.37;;;;;;;;;;4994656;28;20226;-69
2023/09/15 14:19:26;;;;;;;4.78;3.88;;;;;;;;;;4996425;28;20413;-69
2023/09/15 14:21:51;;;;;;;4.70;3.80;;;;;;;;;;4993146;28;20172;-69